Time;durP1;ratioP1;P1;durP2;ratioP2;P2;SDS_P1;SDS_P2;PMS_P1;PMS_P2;Temp;Humidity;BMP_temperature;BMP_pressure;BME280_temperature;BME280_humidity;BME280_pressure;Samples;Min_cycle;Max_cycle;Signal;HPM_P1;HPM_P2
2021/03/30 00:01:10;;;;;;;0.20;0.10;;;;;;;21.51;46.31;101548.47;5075479;28;20020;-61
2021/03/30 00:03:35;;;;;;;1.08;0.30;;;;;;;21.45;46.58;101549.16;5075573;28;20471;-61
2021/03/30 00:06:02;;;;;;;2.30;0.50;;;;;;;21.40;46.42;101551.56;5075723;28;20052;-61
2021/03/30 00:08:27;;;;;;;0.50;0.20;;;;;;;21.36;45.88;101553.81;5075646;28;20472;-61
2021/03/30 00:10:53;;;;;;;0.90;0.30;;;;;;;21.34;45.42;101557.75;5075503;28;20046;-61
2021/03/30 00:13:18;;;;;;;0.20;0.13;;;;;;;21.32;45.44;101556.00;5075427;28;20024;-61
2021/03/30 00:15:44;;;;;;;0.22;0.20;;;;;;;21.31;44.88;101559.78;5075422;28;20033;-61
2021/03/30 00:18:09;;;;;;;0.43;0.10;;;;;;;21.32;44.91;101558.75;5075423;28;20069;-61
2021/03/30 00:20:35;;;;;;;0.32;0.22;;;;;;;21.34;44.49;101557.75;5057514;28;20021;-61
2021/03/30 00:23:00;;;;;;;0.45;0.20;;;;;;;21.35;44.58;101556.72;5074982;28;20064;-62
2021/03/30 00:25:26;;;;;;;0.77;0.43;;;;;;;21.36;44.25;101558.44;5057628;28;20070;-61
2021/03/30 00:27:51;;;;;;;0.10;0.10;;;;;;;21.39;43.98;101549.88;5075678;28;20509;-61
2021/03/30 00:30:17;;;;;;;0.80;0.30;;;;;;;21.43;43.75;101562.16;5075276;28;20070;-61
2021/03/30 00:32:42;;;;;;;0.20;0.10;;;;;;;21.42;44.60;101552.25;5074810;28;20502;-61
2021/03/30 00:35:08;;;;;;;1.15;0.30;;;;;;;21.45;44.35;101562.84;5074973;28;20025;-61
2021/03/30 00:37:35;;;;;;;1.00;0.20;;;;;;;21.39;44.91;101544.41;5074455;28;20064;-61
2021/03/30 00:40:01;;;;;;;0.32;0.10;;;;;;;21.43;45.06;101552.06;5075001;28;20017;-61
2021/03/30 00:42:26;;;;;;;0.80;0.28;;;;;;;21.34;44.97;101552.28;5074761;28;20024;-62
2021/03/30 00:44:52;;;;;;;0.63;0.20;;;;;;;21.28;44.66;101554.66;5075008;28;20464;-61
2021/03/30 00:47:19;;;;;;;0.47;0.10;;;;;;;21.23;44.88;101557.03;5074816;28;20024;-61
2021/03/30 00:49:47;;;;;;;1.25;0.40;;;;;;;21.24;45.11;101557.91;5074899;28;20094;-61
2021/03/30 00:52:13;;;;;;;0.65;0.20;;;;;;;21.24;44.80;101552.41;5074435;28;20027;-61
2021/03/30 00:54:38;;;;;;;0.82;0.52;;;;;;;21.23;44.09;101548.84;5074910;28;20024;-61
2021/03/30 00:57:05;;;;;;;0.63;0.35;;;;;;;21.23;44.44;101550.72;5074543;28;20151;-62
2021/03/30 00:59:31;;;;;;;0.50;0.20;;;;;;;21.23;44.05;101540.63;5074804;28;20055;-61
2021/03/30 01:01:57;;;;;;;0.43;0.20;;;;;;;21.25;44.27;101543.22;5074317;28;20463;-61
2021/03/30 01:04:22;;;;;;;0.60;0.25;;;;;;;21.28;43.54;101540.97;5074581;28;20032;-61
2021/03/30 01:06:48;;;;;;;0.85;0.20;;;;;;;21.32;43.77;101534.13;5074655;28;20025;-62
2021/03/30 01:09:16;;;;;;;0.50;0.20;;;;;;;21.37;42.96;101535.50;5074107;28;20027;-62
2021/03/30 01:11:44;;;;;;;0.75;0.20;;;;;;;21.34;43.11;101535.88;5074473;28;20036;-61
2021/03/30 01:14:24;;;;;;;0.25;0.10;;;;;;;21.35;43.79;101537.56;5073879;28;20052;-61
2021/03/30 01:16:57;;;;;;;0.77;0.20;;;;;;;21.34;43.67;101552.28;5074427;28;20058;-61
2021/03/30 01:20:09;;;;;;;0.93;0.43;;;;;;;21.29;44.27;101555.50;5074232;28;20105;-60
2021/03/30 01:22:55;;;;;;;0.82;0.30;;;;;;;21.21;43.47;101556.34;5073865;28;20050;-62
2021/03/30 01:25:21;;;;;;;0.55;0.30;;;;;;;21.12;44.12;101543.72;5074109;28;20165;-61
2021/03/30 01:28:05;;;;;;;0.60;0.20;;;;;;;21.15;44.41;101543.34;5074252;28;20478;-60
2021/03/30 01:30:35;;;;;;;0.63;0.28;;;;;;;21.15;44.76;101540.63;5056163;28;20115;-61
2021/03/30 01:33:06;;;;;;;0.35;0.20;;;;;;;21.17;45.17;101535.00;5073608;28;20115;-61
2021/03/30 01:35:33;;;;;;;0.57;0.40;;;;;;;21.16;45.57;101539.59;5074042;28;20414;-62
2021/03/30 01:38:00;;;;;;;0.93;0.20;;;;;;;21.20;45.76;101540.13;5073893;28;20032;-61
2021/03/30 01:40:28;;;;;;;0.65;0.20;;;;;;;21.20;45.92;101530.03;5073883;28;20028;-61
2021/03/30 01:42:55;;;;;;;0.45;0.20;;;;;;;21.23;46.50;101543.38;5073549;28;20383;-61
2021/03/30 01:45:22;;;;;;;0.57;0.38;;;;;;;21.25;45.82;101549.53;5073449;28;20475;-64
2021/03/30 01:47:49;;;;;;;0.32;0.13;;;;;;;21.30;46.27;101547.13;5073520;28;20138;-61
2021/03/30 01:50:15;;;;;;;0.50;0.20;;;;;;;21.28;46.61;101543.72;5072762;28;20046;-61
2021/03/30 01:52:41;;;;;;;0.77;0.13;;;;;;;21.29;46.71;101544.56;5073414;28;20523;-61
2021/03/30 01:55:09;;;;;;;0.40;0.10;;;;;;;21.31;46.81;101537.91;5073395;28;20028;-60
2021/03/30 01:57:36;;;;;;;0.45;0.20;;;;;;;21.26;47.38;101545.78;5073846;28;20024;-61
2021/03/30 02:00:06;;;;;;;0.30;0.20;;;;;;;21.20;46.85;101540.97;5073322;28;20463;-61
2021/03/30 02:02:31;;;;;;;0.85;0.28;;;;;;;21.17;47.01;101545.94;5073226;28;20479;-60
2021/03/30 02:04:57;;;;;;;0.30;0.20;;;;;;;21.17;46.70;101540.47;5073359;28;20030;-61
2021/03/30 02:07:24;;;;;;;0.80;0.20;;;;;;;21.13;46.46;101539.94;5073366;28;20095;-61
2021/03/30 02:09:55;;;;;;;0.30;0.20;;;;;;;21.11;45.91;101542.00;5055358;28;20031;-62
2021/03/30 02:12:23;;;;;;;0.20;0.10;;;;;;;21.15;45.87;101543.34;5073167;28;20060;-61
2021/03/30 02:14:48;;;;;;;0.40;0.10;;;;;;;21.17;45.97;101533.13;5053352;28;20411;-61
2021/03/30 02:17:37;;;;;;;0.20;0.08;;;;;;;21.16;45.66;101534.13;5053091;28;20029;-61
2021/03/30 02:20:13;;;;;;;0.50;0.30;;;;;;;21.18;45.32;101526.63;5052982;28;20029;-61
2021/03/30 02:23:03;;;;;;;0.35;0.20;;;;;;;21.21;44.65;101529.00;5057937;28;20028;-61
2021/03/30 02:25:30;;;;;;;0.38;0.10;;;;;;;21.28;44.71;101529.19;5010995;28;20029;-61
2021/03/30 02:28:01;;;;;;;0.10;0.10;;;;;;;21.27;44.37;101530.22;5010356;28;20041;-61
2021/03/30 02:30:28;;;;;;;2.00;0.38;;;;;;;21.27;45.50;101525.59;5010900;28;20126;-62
2021/03/30 02:32:55;;;;;;;0.15;0.10;;;;;;;21.25;45.85;101533.13;5004050;28;20186;-62
2021/03/30 02:35:23;;;;;;;0.52;0.17;;;;;;;21.24;45.43;101531.44;4991156;28;20026;-62
2021/03/30 02:37:50;;;;;;;0.30;0.30;;;;;;;21.18;45.65;101521.16;4991309;28;20047;-61
2021/03/30 02:40:17;;;;;;;0.40;0.10;;;;;;;21.14;45.41;101517.03;4991100;28;20180;-62
2021/03/30 02:42:46;;;;;;;0.40;0.20;;;;;;;21.10;45.36;101496.56;4995741;28;20037;-60
2021/03/30 02:45:13;;;;;;;0.77;0.20;;;;;;;21.08;45.31;101501.34;5010490;28;20045;-61
2021/03/30 02:47:42;;;;;;;0.82;0.20;;;;;;;21.07;44.90;101496.91;5010854;28;20030;-61
2021/03/30 02:50:09;;;;;;;0.45;0.17;;;;;;;21.10;45.13;101504.75;5010373;28;20029;-61
2021/03/30 02:52:35;;;;;;;1.02;0.25;;;;;;;21.10;45.22;101512.09;5007240;28;20034;-62
2021/03/30 02:55:03;;;;;;;0.50;0.10;;;;;;;21.09;44.98;101516.72;4990931;28;20424;-62
2021/03/30 02:57:28;;;;;;;0.65;0.22;;;;;;;21.12;44.78;101513.63;4974727;28;20596;-62
2021/03/30 02:59:54;;;;;;;0.68;0.20;;;;;;;21.14;44.74;101506.09;4990706;28;20125;-60
2021/03/30 03:02:22;;;;;;;0.30;0.10;;;;;;;21.16;44.39;101516.88;5019036;28;20029;-61
2021/03/30 03:04:48;;;;;;;0.35;0.25;;;;;;;21.22;44.30;101510.72;5072735;28;20025;-62
2021/03/30 03:07:15;;;;;;;0.52;0.10;;;;;;;21.21;44.48;101512.59;5054321;28;20471;-62
2021/03/30 03:09:41;;;;;;;0.77;0.20;;;;;;;21.19;44.57;101517.41;5072571;28;20052;-62
2021/03/30 03:12:08;;;;;;;0.82;0.30;;;;;;;21.20;44.78;101519.09;5054280;28;20466;-61
2021/03/30 03:14:36;;;;;;;0.70;0.38;;;;;;;21.20;45.07;101516.38;5072611;28;20036;-61
2021/03/30 03:17:03;;;;;;;0.47;0.17;;;;;;;21.14;44.40;101519.78;5072263;28;20029;-62
2021/03/30 03:19:29;;;;;;;0.82;0.30;;;;;;;21.09;43.99;101516.72;5072554;28;20027;-61
2021/03/30 03:21:54;;;;;;;0.30;0.10;;;;;;;21.05;43.65;101520.84;5072443;28;20024;-62
2021/03/30 03:24:20;;;;;;;1.13;0.13;;;;;;;21.05;43.75;101520.84;5072073;28;20432;-60
2021/03/30 03:26:46;;;;;;;0.45;0.20;;;;;;;21.04;43.69;101513.66;5072509;28;20029;-61
2021/03/30 03:29:19;;;;;;;0.25;0.10;;;;;;;21.02;43.58;101510.25;5072500;28;20021;-62
2021/03/30 03:31:46;;;;;;;0.10;0.10;;;;;;;21.06;43.41;101511.59;5054388;28;20024;-62
2021/03/30 03:34:12;;;;;;;0.08;0.00;;;;;;;21.05;43.36;101509.03;5071682;28;20055;-62
2021/03/30 03:36:40;;;;;;;0.30;0.10;;;;;;;21.07;43.77;101512.47;5072372;28;20108;-61
2021/03/30 03:39:08;;;;;;;0.40;0.10;;;;;;;21.11;44.31;101514.66;5072410;28;20364;-62
2021/03/30 03:41:33;;;;;;;0.47;0.10;;;;;;;21.12;44.00;101505.44;5072379;28;20020;-62
2021/03/30 03:43:59;;;;;;;0.65;0.13;;;;;;;21.16;44.71;101506.78;5071922;28;20036;-62
2021/03/30 03:46:24;;;;;;;0.52;0.38;;;;;;;21.13;45.48;101501.66;5072215;28;20108;-62
2021/03/30 03:48:50;;;;;;;0.17;0.10;;;;;;;21.14;46.31;101502.53;5072239;28;20082;-61
2021/03/30 03:51:16;;;;;;;0.50;0.20;;;;;;;21.23;47.10;101496.88;5054035;28;20060;-61
2021/03/30 03:53:42;;;;;;;0.00;0.00;;;;;;;21.17;47.45;101502.19;5071943;28;20036;-61
2021/03/30 03:56:09;;;;;;;0.30;0.10;;;;;;;21.10;47.67;101493.81;5071910;28;20025;-62
2021/03/30 03:58:39;;;;;;;0.52;0.20;;;;;;;21.07;47.67;101501.53;5072174;28;20028;-61
2021/03/30 04:01:09;;;;;;;0.30;0.20;;;;;;;21.06;47.61;101505.28;5071844;28;20094;-61
2021/03/30 04:03:48;;;;;;;0.43;0.13;;;;;;;21.08;47.57;101504.09;5071974;28;20101;-61
2021/03/30 04:06:22;;;;;;;0.30;0.20;;;;;;;21.11;46.58;101503.72;5071853;28;20052;-61
2021/03/30 04:08:55;;;;;;;0.65;0.20;;;;;;;21.20;46.48;101490.91;5072103;28;20052;-61
2021/03/30 04:11:22;;;;;;;0.40;0.10;;;;;;;21.29;46.48;101490.72;5053801;28;20031;-61
2021/03/30 04:13:50;;;;;;;0.00;0.00;;;;;;;21.41;46.13;101487.63;5075205;28;20107;-61
2021/03/30 04:16:16;;;;;;;0.10;0.10;;;;;;;21.53;45.93;101486.22;5075365;28;20138;-61
2021/03/30 04:18:43;;;;;;;0.30;0.10;;;;;;;21.62;45.50;101475.06;5075619;28;20064;-62
2021/03/30 04:21:14;;;;;;;0.10;0.10;;;;;;;21.69;45.13;101486.16;5075229;28;20013;-61
2021/03/30 04:23:45;;;;;;;0.10;0.10;;;;;;;21.70;44.55;101471.44;5075273;28;20039;-61
2021/03/30 04:26:11;;;;;;;0.10;0.10;;;;;;;21.65;44.95;101473.84;5075166;28;20031;-61
2021/03/30 04:28:37;;;;;;;1.10;0.10;;;;;;;21.60;45.65;101466.16;5075413;28;20028;-62
2021/03/30 04:31:03;;;;;;;0.30;0.15;;;;;;;21.65;45.62;101468.38;5075056;28;20430;-62
2021/03/30 04:33:28;;;;;;;0.05;0.00;;;;;;;21.60;45.84;101465.31;5075093;28;20076;-61
2021/03/30 04:35:53;;;;;;;0.43;0.15;;;;;;;21.57;45.25;101454.75;5075444;28;20103;-60
2021/03/30 04:38:18;;;;;;;0.10;0.10;;;;;;;21.59;45.10;101458.16;5075053;28;20020;-61
2021/03/30 04:40:50;;;;;;;0.40;0.10;;;;;;;21.61;44.64;101456.06;5075237;28;20052;-61
2021/03/30 04:43:15;;;;;;;0.10;0.00;;;;;;;21.62;44.98;101457.78;5074885;28;20024;-61
2021/03/30 04:45:40;;;;;;;0.10;0.05;;;;;;;21.63;44.71;101465.81;5075075;28;20590;-61
2021/03/30 04:48:06;;;;;;;0.20;0.13;;;;;;;21.64;44.62;101455.72;5074455;28;20031;-61
2021/03/30 04:50:32;;;;;;;0.15;0.10;;;;;;;21.67;44.71;101444.44;5074972;28;20487;-61
2021/03/30 04:52:57;;;;;;;0.10;0.10;;;;;;;21.71;44.43;101451.25;5074799;28;20028;-61
2021/03/30 04:55:22;;;;;;;0.08;0.00;;;;;;;21.75;44.13;101459.94;5074794;28;20111;-61
2021/03/30 04:57:47;;;;;;;0.20;0.10;;;;;;;21.79;44.22;101464.03;5074835;28;20027;-61
2021/03/30 05:00:15;;;;;;;0.22;0.22;;;;;;;21.85;43.81;101464.19;5074530;28;20505;-61
2021/03/30 05:02:40;;;;;;;0.10;0.03;;;;;;;21.84;43.74;101473.44;5074751;28;20494;-61
2021/03/30 05:05:06;;;;;;;0.13;0.00;;;;;;;21.73;44.78;101460.13;5074193;28;20036;-61
2021/03/30 05:07:31;;;;;;;0.10;0.10;;;;;;;21.85;44.64;101457.84;5074680;28;20025;-62
2021/03/30 05:09:57;;;;;;;0.35;0.10;;;;;;;21.77;44.43;101461.47;5056482;28;20456;-61
2021/03/30 05:12:22;;;;;;;0.20;0.00;;;;;;;21.67;45.31;101459.97;5074454;28;20024;-62
2021/03/30 05:14:47;;;;;;;0.10;0.00;;;;;;;21.64;44.53;101455.72;5074523;28;20421;-61
2021/03/30 05:17:12;;;;;;;0.15;0.00;;;;;;;21.66;44.62;101459.13;5074262;28;20024;-61
2021/03/30 05:19:40;;;;;;;0.77;0.20;;;;;;;21.74;44.56;101464.56;5074341;28;20027;-62
2021/03/30 05:22:05;;;;;;;0.50;0.10;;;;;;;21.75;43.88;101474.50;5073921;28;20016;-62
2021/03/30 05:24:30;;;;;;;0.03;0.00;;;;;;;21.72;43.83;101469.38;5074087;28;20367;-61
2021/03/30 05:26:56;;;;;;;0.30;0.10;;;;;;;21.79;43.65;101470.34;5074197;28;20028;-61
2021/03/30 05:29:21;;;;;;;0.10;0.00;;;;;;;21.81;43.04;101468.28;5074159;28;20371;-61
2021/03/30 05:31:46;;;;;;;0.65;0.00;;;;;;;21.84;43.49;101461.63;5074135;28;20420;-62
2021/03/30 05:34:11;;;;;;;0.20;0.10;;;;;;;21.85;43.06;101458.72;5073651;28;20053;-61
2021/03/30 05:36:37;;;;;;;0.65;0.10;;;;;;;21.89;42.87;101459.19;5074016;28;20123;-61
2021/03/30 05:39:03;;;;;;;0.20;0.10;;;;;;;21.91;43.84;101463.44;5055879;28;20067;-62
2021/03/30 05:41:28;;;;;;;0.17;0.05;;;;;;;21.92;44.40;101454.22;5056312;28;20394;-62
2021/03/30 05:43:56;;;;;;;0.10;0.10;;;;;;;21.93;45.36;101439.47;5073558;28;20032;-61
2021/03/30 05:46:21;;;;;;;0.00;0.00;;;;;;;21.93;45.83;101444.09;5073689;28;20020;-61
2021/03/30 05:48:48;;;;;;;0.25;0.00;;;;;;;21.85;46.15;101442.28;5073827;28;20083;-61
2021/03/30 05:51:13;;;;;;;0.13;0.10;;;;;;;21.80;46.28;101444.69;5073656;28;20032;-61
2021/03/30 05:53:43;;;;;;;0.00;0.00;;;;;;;21.78;47.24;101443.16;5073795;28;20025;-61
2021/03/30 05:56:09;;;;;;;0.20;0.00;;;;;;;21.74;46.55;101444.56;5073409;28;20036;-62
2021/03/30 05:58:38;;;;;;;0.20;0.00;;;;;;;21.77;46.28;101431.38;5073682;28;20025;-62
2021/03/30 06:01:05;;;;;;;0.00;0.00;;;;;;;21.75;46.66;101433.44;5073582;28;20348;-61
2021/03/30 06:03:33;;;;;;;0.25;0.10;;;;;;;21.77;46.83;101425.91;5073567;28;20137;-61
2021/03/30 06:06:00;;;;;;;0.10;0.03;;;;;;;21.86;46.39;101437.66;5073150;28;20025;-62
2021/03/30 06:08:28;;;;;;;0.13;0.13;;;;;;;21.90;46.38;101423.44;5073358;28;20031;-62
2021/03/30 06:10:59;;;;;;;0.10;0.10;;;;;;;21.98;46.32;101407.97;5073296;28;20029;-61
2021/03/30 06:13:50;;;;;;;0.10;0.10;;;;;;;22.03;45.94;101413.78;5073299;28;20065;-61
2021/03/30 06:16:37;;;;;;;0.00;0.00;;;;;;;21.99;45.78;101417.88;5073138;28;20040;-62
2021/03/30 06:19:11;;;;;;;0.30;0.10;;;;;;;21.98;45.70;101421.66;5073078;28;20022;-62
2021/03/30 06:21:39;;;;;;;0.10;0.00;;;;;;;22.03;46.08;101406.41;5073245;28;20024;-61
2021/03/30 06:24:19;;;;;;;0.20;0.00;;;;;;;21.97;45.80;101418.06;5072920;28;20036;-61
2021/03/30 06:26:45;;;;;;;0.10;0.00;;;;;;;21.86;46.20;101415.75;5073214;28;20489;-62
2021/03/30 06:29:24;;;;;;;0.00;0.00;;;;;;;21.83;45.38;101427.91;5072471;28;20020;-62
2021/03/30 06:31:50;;;;;;;0.00;0.00;;;;;;;21.87;45.49;101431.16;5072818;28;20051;-62
2021/03/30 06:34:27;;;;;;;0.20;0.10;;;;;;;21.87;45.16;101425.69;5072324;28;20040;-61
2021/03/30 06:36:53;;;;;;;0.10;0.00;;;;;;;21.89;44.87;101423.59;5072939;28;20100;-62
2021/03/30 06:39:18;;;;;;;0.28;0.20;;;;;;;21.92;44.44;101424.09;5072800;28;20104;-61
2021/03/30 06:41:50;;;;;;;0.00;0.00;;;;;;;21.95;44.82;101419.28;5073018;28;20025;-61
2021/03/30 06:44:25;;;;;;;0.47;0.47;;;;;;;21.98;44.39;101419.75;5072729;28;20028;-61
2021/03/30 06:46:51;;;;;;;;;;;;;;;21.98;44.39;101411.56;5073290;28;20107;-63
2021/03/30 06:49:18;;;;;;;0.10;0.10;;;;;;;22.05;44.26;101425.41;5072943;28;19912;-62
2021/03/30 06:51:44;;;;;;;0.13;0.00;;;;;;;22.05;43.66;101417.22;5072771;28;20059;-62
2021/03/30 06:54:10;;;;;;;0.05;0.03;;;;;;;22.03;44.31;101411.03;5072605;28;20056;-62
2021/03/30 06:56:56;;;;;;;0.10;0.00;;;;;;;22.04;44.90;101402.63;5054511;28;20379;-62
2021/03/30 06:59:22;;;;;;;0.00;0.00;;;;;;;22.03;44.78;101408.28;5054666;28;20467;-62
2021/03/30 07:01:50;;;;;;;0.15;0.10;;;;;;;21.96;44.69;101410.03;5072713;28;20016;-62
2021/03/30 07:04:17;;;;;;;0.43;0.10;;;;;;;21.95;44.30;101391.91;5072563;28;20395;-62
2021/03/30 07:06:48;;;;;;;0.15;0.00;;;;;;;21.89;44.50;101402.56;5054697;28;20024;-62
2021/03/30 07:09:13;;;;;;;0.00;0.00;;;;;;;21.89;44.09;101383.41;5072316;28;20036;-61
2021/03/30 07:11:39;;;;;;;0.00;0.00;;;;;;;21.92;43.86;101382.19;5072269;28;20117;-62
2021/03/30 07:14:05;;;;;;;0.08;0.05;;;;;;;22.00;43.46;101395.78;5059137;28;20027;-65
2021/03/30 07:16:53;;;;;;;1.65;0.10;;;;;;;21.98;43.50;101386.06;5072574;28;20380;-61
2021/03/30 07:19:24;;;;;;;0.10;0.03;;;;;;;21.99;43.43;101357.66;5072453;28;20032;-61
2021/03/30 07:22:09;;;;;;;0.28;0.10;;;;;;;22.05;43.01;101367.91;5072478;28;20103;-64
2021/03/30 07:24:41;;;;;;;0.30;0.08;;;;;;;22.03;43.27;101346.16;5070245;28;20025;-62
2021/03/30 07:27:13;;;;;;;0.40;0.20;;;;;;;22.07;43.82;101341.22;5070062;28;20028;-62
2021/03/30 07:29:46;;;;;;;0.20;0.10;;;;;;;22.10;44.07;101346.31;5070576;28;20103;-64
2021/03/30 07:32:29;;;;;;;0.30;0.28;;;;;;;22.10;44.78;101363.59;5071337;28;20074;-63
2021/03/30 07:35:11;;;;;;;0.10;0.10;;;;;;;22.12;45.74;101372.47;5072336;28;20072;-61
2021/03/30 07:37:50;;;;;;;0.20;0.20;;;;;;;22.07;45.90;101380.38;5070264;28;20031;-62
2021/03/30 07:40:18;;;;;;;0.00;0.00;;;;;;;22.05;45.52;101382.47;5071984;28;20016;-61
2021/03/30 07:42:46;;;;;;;0.20;0.10;;;;;;;22.02;46.07;101385.53;5072278;28;20024;-61
2021/03/30 07:45:13;;;;;;;0.10;0.00;;;;;;;22.04;45.69;101390.84;5071993;28;20027;-62
2021/03/30 07:47:40;;;;;;;0.35;0.00;;;;;;;22.02;45.35;101387.44;5057534;28;20025;-62
2021/03/30 07:50:10;;;;;;;0.60;0.10;;;;;;;22.05;45.08;101381.63;5075641;28;20031;-63
2021/03/30 07:52:54;;;;;;;0.00;0.00;;;;;;;22.02;45.45;101387.44;5074943;28;20055;-61
2021/03/30 07:55:19;;;;;;;0.10;0.10;;;;;;;22.07;45.71;101379.53;5075614;28;20099;-62
2021/03/30 07:58:15;;;;;;;0.20;0.10;;;;;;;22.09;45.43;101361.03;5080386;28;20518;-60
2021/03/30 08:00:45;;;;;;;0.40;0.10;;;;;;;22.12;45.30;101355.19;5067666;28;20483;-60
2021/03/30 08:03:21;;;;;;;0.10;0.10;;;;;;;22.14;45.05;101364.06;5088425;28;20073;-60
2021/03/30 08:06:03;;;;;;;0.60;0.17;;;;;;;22.12;44.73;101356.03;5083710;28;20640;-61
2021/03/30 08:08:28;;;;;;;0.20;0.08;;;;;;;22.14;44.92;101353.13;5074715;28;20075;-60
2021/03/30 08:10:54;;;;;;;0.20;0.00;;;;;;;22.13;45.13;101359.63;5061411;28;20048;-62
2021/03/30 08:13:35;;;;;;;0.95;0.10;;;;;;;22.03;44.70;101368.06;5060387;28;20111;-59
2021/03/30 08:16:06;;;;;;;0.10;0.08;;;;;;;22.05;44.43;101368.78;5074555;28;20067;-60
2021/03/30 08:18:42;;;;;;;0.10;0.08;;;;;;;22.03;44.27;101367.22;5073708;28;20036;-61
2021/03/30 08:21:11;;;;;;;0.68;0.13;;;;;;;22.02;44.04;101379.22;5074269;28;20027;-60
2021/03/30 08:23:51;;;;;;;0.50;0.03;;;;;;;22.04;44.21;101371.66;5074028;28;20034;-60
2021/03/30 08:26:31;;;;;;;1.88;0.10;;;;;;;22.03;44.06;101389.13;5075517;28;20036;-59
2021/03/30 08:29:05;;;;;;;0.40;0.32;;;;;;;22.02;43.99;101380.06;5074187;28;20028;-61
2021/03/30 08:31:51;;;;;;;0.43;0.10;;;;;;;22.08;43.49;101392.19;5073993;28;20028;-60
2021/03/30 08:34:19;;;;;;;1.85;0.20;;;;;;;22.09;43.71;101385.69;5073146;28;20395;-60
2021/03/30 08:36:44;;;;;;;0.50;0.10;;;;;;;22.15;43.05;101398.63;5074344;28;20054;-61
2021/03/30 08:39:31;;;;;;;0.30;0.20;;;;;;;22.13;44.12;101406.19;5074101;28;20032;-61
2021/03/30 08:42:18;;;;;;;0.88;0.00;;;;;;;22.14;44.14;101402.41;5055766;28;20055;-61
2021/03/30 08:44:48;;;;;;;0.45;0.10;;;;;;;22.10;43.92;101401.06;5055998;28;20040;-61
2021/03/30 08:47:35;;;;;;;0.20;0.20;;;;;;;22.05;44.11;101389.81;5054371;28;20071;-62
2021/03/30 08:50:22;;;;;;;0.03;0.00;;;;;;;22.03;43.47;101394.59;5071521;28;20471;-62
2021/03/30 08:52:48;;;;;;;0.22;0.03;;;;;;;22.03;44.06;101394.59;5054274;28;20134;-60
2021/03/30 08:55:14;;;;;;;0.10;0.10;;;;;;;22.02;43.37;101387.44;5071876;28;20039;-61
2021/03/30 08:57:47;;;;;;;0.30;0.10;;;;;;;22.05;43.41;101387.94;5071679;28;20025;-61
2021/03/30 09:00:14;;;;;;;0.55;0.20;;;;;;;22.05;43.28;101395.31;5068647;28;20039;-60
2021/03/30 09:02:40;;;;;;;0.10;0.10;;;;;;;22.05;43.15;101398.03;5073747;28;20033;-60
2021/03/30 09:05:19;;;;;;;0.43;0.10;;;;;;;22.06;43.33;101397.00;5073839;28;20036;-59
2021/03/30 09:07:48;;;;;;;0.15;0.10;;;;;;;22.12;43.28;101399.84;5071997;28;20021;-61
2021/03/30 09:10:16;;;;;;;0.40;0.20;;;;;;;22.15;43.25;101396.75;5073297;28;20028;-62
2021/03/30 09:12:48;;;;;;;0.73;0.17;;;;;;;22.19;43.12;101400.00;5072780;28;20379;-62
2021/03/30 09:15:16;;;;;;;2.17;0.50;;;;;;;22.19;43.26;101400.00;5071479;28;20028;-59
2021/03/30 09:17:58;;;;;;;0.40;0.15;;;;;;;22.22;43.82;101405.09;5072802;28;20130;-64
2021/03/30 09:20:25;;;;;;;0.25;0.20;;;;;;;22.17;44.38;101408.38;5056693;28;20021;-63
2021/03/30 09:22:52;;;;;;;0.50;0.10;;;;;;;22.08;43.75;101427.78;5053472;28;20033;-63
2021/03/30 09:25:27;;;;;;;0.95;0.20;;;;;;;22.05;43.90;101414.47;5070945;28;20376;-63
2021/03/30 09:27:52;;;;;;;0.95;0.40;;;;;;;22.03;44.49;101408.28;5071293;28;20029;-64
2021/03/30 09:30:20;;;;;;;2.00;0.38;;;;;;;22.07;44.38;101424.19;5070989;28;20399;-65
2021/03/30 09:32:50;;;;;;;0.55;0.35;;;;;;;22.09;45.02;101410.31;5071082;28;20046;-69
2021/03/30 09:35:28;;;;;;;0.98;0.20;;;;;;;22.09;45.20;101408.44;5067892;28;20028;-66
2021/03/30 09:37:56;;;;;;;0.60;0.20;;;;;;;22.10;45.50;101422.97;5071765;28;20024;-64
2021/03/30 09:40:33;;;;;;;0.43;0.28;;;;;;;22.12;45.42;101421.75;5070754;28;20036;-61
2021/03/30 09:42:59;;;;;;;0.68;0.28;;;;;;;22.11;45.28;101413.72;5054498;28;20043;-65
2021/03/30 09:45:30;;;;;;;0.47;0.20;;;;;;;22.17;45.69;101412.97;5071098;28;20123;-64
2021/03/30 09:47:58;;;;;;;0.47;0.30;;;;;;;22.19;45.57;101410.94;5069260;28;20061;-65
2021/03/30 09:50:25;;;;;;;0.15;0.15;;;;;;;22.14;45.69;101413.34;5071814;28;20032;-61
2021/03/30 09:52:51;;;;;;;0.65;0.30;;;;;;;22.18;45.89;101418.31;5072393;28;20024;-64
2021/03/30 09:55:33;;;;;;;0.30;0.13;;;;;;;22.17;45.98;101430.31;5071429;28;20028;-66
2021/03/30 09:58:11;;;;;;;0.40;0.22;;;;;;;22.14;46.26;101418.84;5068913;28;20029;-66
2021/03/30 10:00:45;;;;;;;1.70;0.10;;;;;;;22.13;45.96;101422.59;5052757;28;20455;-65
2021/03/30 10:03:12;;;;;;;1.58;0.40;;;;;;;22.10;45.33;101412.03;5069982;28;20025;-63
2021/03/30 10:05:40;;;;;;;1.02;0.20;;;;;;;22.10;45.04;101409.28;5071653;28;20041;-62
2021/03/30 10:08:17;;;;;;;1.20;0.55;;;;;;;22.10;44.47;101412.03;5072716;28;20024;-63
2021/03/30 10:10:44;;;;;;;0.30;0.25;;;;;;;22.09;44.93;101418.53;5071545;28;20020;-62
2021/03/30 10:13:25;;;;;;;0.68;0.30;;;;;;;22.08;44.30;101422.31;5070961;28;20024;-62
2021/03/30 10:15:51;;;;;;;0.73;0.40;;;;;;;22.13;44.68;101428.09;5072184;28;20025;-62
2021/03/30 10:18:17;;;;;;;0.63;0.20;;;;;;;22.13;44.36;101430.81;5070459;28;20083;-62
2021/03/30 10:20:51;;;;;;;0.60;0.40;;;;;;;22.16;43.77;101433.19;5071986;28;20345;-62
2021/03/30 10:23:44;;;;;;;0.30;0.30;;;;;;;22.19;43.84;101433.72;5072063;28;20017;-65
2021/03/30 10:26:35;;;;;;;0.45;0.10;;;;;;;22.21;44.31;101441.72;5052278;28;20043;-64
2021/03/30 10:29:11;;;;;;;1.25;0.50;;;;;;;22.22;44.30;101454.38;5069624;28;20068;-64
2021/03/30 10:31:43;;;;;;;0.32;0.25;;;;;;;22.14;43.92;101457.16;5072878;28;20016;-62
2021/03/30 10:34:27;;;;;;;0.50;0.20;;;;;;;22.07;44.19;101450.72;5071446;28;20052;-63
2021/03/30 10:36:55;;;;;;;1.02;0.20;;;;;;;22.09;44.00;101448.66;5072859;28;20509;-69
2021/03/30 10:39:30;;;;;;;0.35;0.20;;;;;;;22.07;43.75;101453.47;5072796;28;20170;-62
2021/03/30 10:42:05;;;;;;;0.60;0.10;;;;;;;22.09;43.71;101454.13;5072587;28;20055;-63
2021/03/30 10:44:45;;;;;;;1.15;0.38;;;;;;;22.10;43.34;101443.00;5071990;28;20060;-62
2021/03/30 10:47:48;;;;;;;0.75;0.40;;;;;;;22.10;43.60;101466.78;5054657;28;20020;-62
2021/03/30 10:50:17;;;;;;;0.10;0.10;;;;;;;22.12;43.56;101478.41;5008444;28;20038;-63
2021/03/30 10:52:43;;;;;;;0.82;0.10;;;;;;;22.12;43.47;101470.19;5006533;28;20081;-62
2021/03/30 10:55:16;;;;;;;0.50;0.30;;;;;;;22.13;43.35;101460.94;4990430;28;20447;-62
2021/03/30 10:57:43;;;;;;;1.27;0.38;;;;;;;22.22;42.94;101479.03;4990563;28;20042;-63
2021/03/30 11:00:10;;;;;;;0.40;0.25;;;;;;;22.17;44.05;101474.13;4973982;28;20038;-62
2021/03/30 11:02:37;;;;;;;1.45;0.30;;;;;;;22.17;44.02;101465.91;5003541;28;20034;-65
2021/03/30 11:05:03;;;;;;;0.60;0.30;;;;;;;22.16;44.28;101474.28;5016471;28;20033;-62
2021/03/30 11:07:28;;;;;;;0.65;0.30;;;;;;;22.09;43.88;101481.53;5010432;28;20045;-66
2021/03/30 11:09:54;;;;;;;0.60;0.28;;;;;;;22.05;44.10;101480.19;5022844;28;20476;-64
2021/03/30 11:12:19;;;;;;;0.60;0.20;;;;;;;22.10;44.41;101483.22;5028022;28;20033;-61
2021/03/30 11:14:45;;;;;;;0.25;0.22;;;;;;;22.14;43.85;101493.63;5010297;28;20089;-60
2021/03/30 11:17:10;;;;;;;0.40;0.22;;;;;;;22.15;43.69;101472.56;5016107;28;20052;-62
2021/03/30 11:19:36;;;;;;;0.55;0.22;;;;;;;22.13;43.65;101482.84;4992721;28;20157;-63
2021/03/30 11:22:02;;;;;;;0.30;0.30;;;;;;;22.12;43.43;101486.63;5013268;28;20075;-63
2021/03/30 11:24:31;;;;;;;0.43;0.30;;;;;;;22.17;43.50;101500.63;4994568;28;20038;-65
2021/03/30 11:26:58;;;;;;;0.80;0.20;;;;;;;22.13;43.33;101493.81;5035411;28;20302;-63
2021/03/30 11:37:00;;;;;;;1.25;0.30;;;;;;;22.26;45.17;101510.50;5071585;28;20480;-65
2021/03/30 11:39:25;;;;;;;1.27;0.10;;;;;;;22.25;45.13;101508.81;5074775;28;20020;-64
2021/03/30 11:41:51;;;;;;;0.75;0.45;;;;;;;22.16;45.68;101498.91;5072202;28;20131;-64
2021/03/30 11:44:16;;;;;;;0.20;0.17;;;;;;;22.13;45.34;101504.75;5057070;28;20486;-65